Data for 04/06/2017

Time Sea-Level Adjusted Pressure Absolute Pressure Temperature Relative Humidity Dew Point   
(mb) (inHg) (mb) (inHg) (C) (F) (%) (C) (F)
00:05 1020 30.12 849 25.07 5.1 41.2 55 -3.1 26.4
00:10 1020 30.12 849 25.07 4.8 40.6 56 -3.2 26.3
00:15 1019 30.09 849 25.07 4.6 40.2 57 -3.3 26.1
00:20 1019 30.09 849 25.07 4.5 40 57 -3.3 26
00:25 1019 30.09 849 25.07 4.5 40.1 56 -3.5 25.7
00:30 1019 30.09 849 25.07 4.7 40.5 55 -3.6 25.5
00:35 1019 30.09 849 25.07 4.7 40.5 55 -3.6 25.6
00:40 1019 30.09 848 25.04 4.8 40.6 55 -3.5 25.6
00:45 1019 30.09 848 25.04 4.9 40.8 54 -3.6 25.5
00:50 1019 30.09 848 25.04 4.9 40.8 54 -3.6 25.5
00:55 1019 30.09 848 25.04 5.1 41.2 52 -3.9 24.9
01:00 1019 30.09 848 25.04 5.3 41.5 52 -3.8 25.2
01:05 1019 30.09 848 25.04 5.3 41.5 52 -3.9 25
01:10 1019 30.09 848 25.04 5.4 41.8 50 -4 24.8
01:15 1019 30.09 848 25.04 5.5 41.8 51 -3.9 25
01:20 1019 30.09 848 25.04 5.4 41.8 50 -4.2 24.5
01:25 1019 30.09 848 25.04 5.6 42 50 -4 24.8
01:30 1019 30.09 848 25.04 5.5 41.9 50 -4.2 24.5
01:35 1019 30.09 848 25.04 5.6 42 50 -4.2 24.5
01:40 1019 30.09 848 25.04 5.7 42.2 49 -4.3 24.3
01:45 1019 30.09 848 25.04 5.9 42.6 48 -4.4 24.1
01:50 1019 30.09 848 25.04 5.9 42.6 48 -4.3 24.3
01:55 1019 30.09 848 25.04 5.8 42.5 48 -4.4 24.1
02:00 1019 30.09 848 25.04 5.9 42.6 48 -4.4 24.2
02:05 1019 30.09 848 25.04 5.8 42.4 48 -4.3 24.3
02:10 1019 30.09 848 25.04 5.8 42.5 48 -4.5 24
02:15 1019 30.09 848 25.04 5.9 42.6 48 -4.3 24.3
02:20 1018 30.06 848 25.04 5.7 42.3 49 -4.3 24.3
02:25 1018 30.06 848 25.04 5.7 42.2 48 -4.3 24.2
02:30 1018 30.06 847 25.01 5.6 42.2 48 -4.4 24.1
02:35 1018 30.06 847 25.01 5.7 42.3 48 -4.5 23.8
02:40 1018 30.06 847 25.01 5.8 42.4 48 -4.5 23.9
02:45 1018 30.06 847 25.01 5.9 42.5 47 -4.6 23.7
02:50 1018 30.06 847 25.01 6 42.7 46 -4.7 23.6
02:55 1018 30.06 847 25.01 5.9 42.7 47 -4.6 23.7
03:00 1018 30.06 847 25.01 5.9 42.6 47 -4.5 23.8
03:05 1018 30.06 847 25.01 5.6 42.1 48 -4.4 24
03:10 1018 30.06 847 25.01 5.5 41.8 48 -4.6 23.7
03:15 1018 30.06 847 25.01 5.5 41.9 48 -4.7 23.5
03:20 1018 30.06 847 25.01 5.5 41.9 48 -4.6 23.7
03:25 1018 30.06 847 25.01 5.4 41.7 48 -4.7 23.5
03:30 1018 30.06 847 25.01 5.4 41.7 49 -4.6 23.8
03:35 1018 30.06 847 25.01 5.2 41.4 49 -4.5 23.9
03:40 1018 30.06 847 25.01 5.1 41.2 50 -4.6 23.8
03:45 1018 30.06 847 25.01 5.3 41.5 49 -4.7 23.6
03:50 1018 30.06 847 25.01 5.3 41.6 49 -4.6 23.8
03:55 1018 30.06 847 25.01 5.3 41.6 48 -4.7 23.6
04:00 1018 30.06 847 25.01 5.6 42.1 47 -4.7 23.5
04:05 1018 30.06 847 25.01 5.7 42.3 47 -4.7 23.5
04:10 1018 30.06 847 25.01 5.9 42.6 46 -4.8 23.3
04:15 1018 30.06 847 25.01 6.1 42.9 45 -5 23.1
04:20 1018 30.06 847 25.01 6.2 43.2 45 -4.8 23.4
04:25 1018 30.06 847 25.01 6.2 43.1 45 -4.8 23.4
04:30 1018 30.06 847 25.01 6.3 43.3 45 -4.8 23.4
04:35 1018 30.06 847 25.01 6.3 43.3 45 -4.9 23.2
04:40 1018 30.06 847 25.01 6.3 43.4 45 -4.8 23.4
04:45 1018 30.06 847 25.01 6.4 43.5 45 -4.8 23.4
04:50 1018 30.06 847 25.01 6.4 43.5 45 -4.8 23.4
04:55 1018 30.06 847 25.01 6.5 43.6 45 -4.8 23.4
05:00 1018 30.06 847 25.01 6.5 43.7 44 -4.9 23.2
05:05 1018 30.06 847 25.01 6.6 43.9 44 -4.9 23.2
05:10 1018 30.06 847 25.01 6.6 43.9 43 -5 23.1
05:15 1018 30.06 847 25.01 6.6 43.8 44 -4.8 23.4
05:20 1018 30.06 847 25.01 6.5 43.7 44 -4.9 23.1
05:25 1018 30.06 847 25.01 6.5 43.8 44 -4.7 23.5
05:30 1018 30.06 847 25.01 6.4 43.5 44 -5.1 22.9
05:35 1018 30.06 847 25.01 6.5 43.6 44 -4.9 23.1
05:40 1018 30.06 847 25.01 6.3 43.4 45 -4.7 23.5
05:45 1018 30.06 847 25.01 6.1 43 47 -4.5 23.9
05:50 1018 30.06 847 25.01 5.9 42.6 47 -4.4 24
05:55 1018 30.06 847 25.01 6 42.8 46 -4.9 23.3
06:00 1018 30.06 847 25.01 6.2 43.2 45 -4.8 23.4
06:05 1018 30.06 847 25.01 6.3 43.3 46 -4.6 23.8
06:10 1018 30.06 847 25.01 6.5 43.7 44 -4.7 23.5
06:15 1018 30.06 847 25.01 6.7 44 44 -4.9 23.3
06:20 1018 30.06 847 25.01 6.8 44.3 43 -4.8 23.4
06:25 1018 30.06 847 25.01 6.9 44.5 43 -4.7 23.6
06:30 1018 30.06 847 25.01 7 44.6 43 -4.6 23.7
06:35 1018 30.06 847 25.01 7.2 45 43 -4.5 23.8
06:40 1018 30.06 847 25.01 7.4 45.3 42 -4.5 23.9
06:45 1018 30.06 847 25.01 7.7 45.9 41 -4.7 23.5
06:50 1018 30.06 847 25.01 8 46.3 41 -4.4 24.1
06:55 1018 30.06 847 25.01 7.9 46.3 42 -4.3 24.2
07:00 1018 30.06 847 25.01 8 46.4 41 -4.3 24.2
07:05 1018 30.06 847 25.01 8.1 46.5 41 -4.4 24
07:10 1018 30.06 847 25.01 8.1 46.6 41 -4.3 24.3
07:15 1018 30.06 847 25.01 8.2 46.7 40 -4.6 23.7
07:20 1018 30.06 847 25.01 8.3 46.9 40 -4.4 24
07:25 1018 30.06 847 25.01 8.4 47.1 40 -4.3 24.2
07:30 1018 30.06 847 25.01 8.5 47.2 41 -4.1 24.5
07:35 1018 30.06 847 25.01 8.6 47.4 40 -4.2 24.5
07:40 1018 30.06 847 25.01 8.6 47.5 40 -4.2 24.4
07:45 1017 30.03 847 25.01 8.8 47.8 40 -4.1 24.7
07:50 1017 30.03 847 25.01 8.8 47.8 40 -4.1 24.6
07:55 1017 30.03 846 24.98 8.9 48 40 -4.1 24.6
08:00 1017 30.03 846 24.98 8.9 48.1 41 -3.7 25.3
08:05 1017 30.03 847 25.01 8.9 47.9 40 -4 24.7
08:10 1017 30.03 847 25.01 9 48.2 40 -3.9 24.9
08:15 1017 30.03 847 25.01 9.1 48.4 39 -4.1 24.6
08:20 1017 30.03 847 25.01 9.2 48.6 39 -4.1 24.7
08:25 1017 30.03 847 25.01 9.3 48.8 38 -4.2 24.5
08:30 1017 30.03 847 25.01 9.4 48.9 38 -4.3 24.3
08:35 1017 30.03 846 24.98 9.5 49.2 38 -4 24.8
08:40 1017 30.03 846 24.98 9.5 49.2 38 -4.1 24.7
08:45 1017 30.03 846 24.98 9.7 49.5 37 -4.4 24.1
08:50 1017 30.03 846 24.98 9.9 49.8 37 -4.1 24.7
08:55 1017 30.03 846 24.98 10.1 50.1 36 -4.1 24.5
09:00 1017 30.03 846 24.98 10.2 50.4 36 -4.3 24.3
09:05 1017 30.03 846 24.98 10.4 50.7 36 -4.1 24.6
09:10 1017 30.03 846 24.98 10.6 51 35 -4.1 24.6
09:15 1017 30.03 846 24.98 10.7 51.3 34 -4.5 23.9
09:20 1017 30.03 846 24.98 11 51.7 33 -4.6 23.6
09:25 1017 30.03 846 24.98 11.2 52.1 33 -4.6 23.8
09:30 1017 30.03 846 24.98 11.4 52.4 33 -4.2 24.4
09:35 1017 30.03 846 24.98 11.4 52.6 32 -4.7 23.6
09:40 1017 30.03 846 24.98 11.6 52.9 32 -4.4 24.1
09:45 1017 30.03 846 24.98 11.9 53.4 32 -4.2 24.5
09:50 1017 30.03 846 24.98 12 53.5 31 -4.7 23.5
09:55 1017 30.03 846 24.98 12.1 53.8 31 -4.7 23.6
10:00 1017 30.03 846 24.98 12.4 54.3 31 -4.3 24.2
10:05 1017 30.03 846 24.98 12.7 54.9 30 -4.6 23.8
10:10 1017 30.03 846 24.98 12.7 54.8 30 -4.5 23.9
10:15 1017 30.03 846 24.98 12.6 54.7 29 -4.7 23.5
10:20 1017 30.03 846 24.98 12.9 55.2 29 -4.5 23.8
10:25 1016 30 846 24.98 13 55.4 29 -4.7 23.5
10:30 1016 30 846 24.98 13.1 55.5 28 -4.8 23.3
10:35 1016 30 846 24.98 13.2 55.8 28 -4.7 23.6
10:40 1016 30 845 24.95 13.4 56.1 28 -4.5 23.9
10:45 1016 30 845 24.95 13.3 56 29 -4.4 24
10:50 1016 30 845 24.95 13.6 56.6 28 -4.3 24.3
10:55 1016 30 845 24.95 13.8 56.9 27 -4.6 23.7
11:00 1016 30 845 24.95 14.1 57.3 27 -4.4 24.1
11:05 1016 30 845 24.95 14.6 58.3 26 -4.4 24
11:10 1016 30 845 24.95 14.5 58.1 27 -4.3 24.2
11:15 1016 30 845 24.95 14.4 58 27 -4.1 24.6
11:20 1016 30 845 24.95 14.7 58.5 27 -4.2 24.4
11:25 1016 30 845 24.95 15.3 59.6 25 -4.5 23.9
11:30 1015 29.97 845 24.95 15.2 59.4 25 -4.5 23.9
11:35 1015 29.97 845 24.95 15.1 59.2 26 -4.3 24.3
11:40 1015 29.97 844 24.92 14.7 58.4 27 -4.2 24.4
11:45 1015 29.97 844 24.92 15 59.1 25 -5 23.1
11:50 1015 29.97 844 24.92 14.8 58.7 25 -4.7 23.6
11:55 1015 29.97 844 24.92 15.5 59.9 24 -4.9 23.1
12:00 1015 29.97 844 24.92 15.5 59.8 24 -4.7 23.6
12:05 1015 29.97 844 24.92 15.5 59.8 24 -4.7 23.6
12:10 1015 29.97 844 24.92 16 60.8 23 -4.8 23.4
12:15 1015 29.97 844 24.92 16.1 61 23 -5 23
12:20 1015 29.97 844 24.92 16.1 61.1 23 -4.9 23.1
12:25 1014 29.94 844 24.92 16.7 62 22 -4.9 23.2
12:30 1014 29.94 843 24.89 17 62.6 20 -5.8 21.6
12:35 1014 29.94 843 24.89 17.8 64 20 -5.1 22.8
12:40 1014 29.94 843 24.89 17.5 63.5 22 -4.4 24
12:45 1014 29.94 843 24.89 17.3 63.1 21 -4.9 23.2
12:50 1014 29.94 843 24.89 17 62.5 22 -4.6 23.7
12:55 1014 29.94 843 24.89 16.9 62.3 22 -4.7 23.5
13:00 1014 29.94 843 24.89 17.3 63.1 22 -4.8 23.4
13:05 1014 29.94 843 24.89 17.2 63 22 -4.7 23.6
13:10 1014 29.94 843 24.89 16.6 61.8 23 -4.6 23.8
13:15 1014 29.94 843 24.89 16.7 62 22 -4.9 23.2
13:20 1013 29.91 843 24.89 17 62.6 25 -2.9 26.8
13:25 1013 29.91 843 24.89 16.9 62.3 24 -3.5 25.7
13:30 1013 29.91 843 24.89 16.9 62.5 23 -4.5 24
13:35 1013 29.91 842 24.86 17.2 63 22 -4.8 23.3
13:40 1013 29.91 842 24.86 17.1 62.8 23 -4.2 24.5
13:45 1013 29.91 842 24.86 17.2 63 22 -4.4 24.1
13:50 1013 29.91 842 24.86 17.3 63.1 20 -5.9 21.4
13:55 1013 29.91 842 24.86 17.2 63 20 -6.1 21
14:00 1013 29.91 842 24.86 17.3 63.2 20 -5.6 22
14:05 1013 29.91 842 24.86 17.3 63.1 19 -6.2 20.9
14:10 1013 29.91 842 24.86 17.2 63 21 -5.5 22.1
14:15 1013 29.91 842 24.86 17.2 63 21 -5.1 22.8
14:20 1013 29.91 842 24.86 17.2 62.9 20 -5.7 21.7
14:25 1013 29.91 842 24.86 17.2 62.9 20 -5.8 21.6
14:30 1013 29.91 842 24.86 17.2 62.9 20 -5.8 21.5
14:35 1013 29.91 842 24.86 17.3 63.1 22 -4.8 23.3
14:40 1012 29.88 842 24.86 17.6 63.7 19 -6.2 20.9
14:45 1012 29.88 841 24.83 17.6 63.6 19 -6.5 20.2
14:50 1012 29.88 841 24.83 17.6 63.7 19 -5.9 21.3
14:55 1012 29.88 841 24.83 17.8 64 18 -6.6 20.2
15:00 1012 29.88 841 24.83 17.8 64 19 -6.2 20.8
15:05 1012 29.88 841 24.83 17.7 63.8 19 -6.5 20.4
15:10 1012 29.88 841 24.83 17.5 63.5 18 -6.7 20
15:15 1012 29.88 841 24.83 17.4 63.3 19 -6.5 20.2
15:20 1012 29.88 841 24.83 17.5 63.5 19 -6.3 20.6
15:25 1012 29.88 841 24.83 17.5 63.4 19 -6.3 20.6
15:30 1012 29.88 841 24.83 17.5 63.4 19 -6.3 20.7
15:35 1012 29.88 841 24.83 17.4 63.3 19 -6.5 20.2
15:40 1012 29.88 841 24.83 17.3 63.2 20 -5.8 21.5
15:45 1012 29.88 841 24.83 17.3 63.2 19 -6.7 19.9
15:50 1012 29.88 841 24.83 17.2 63 20 -5.7 21.7
15:55 1012 29.88 841 24.83 17.2 63 20 -6.1 21
16:00 1012 29.88 841 24.83 17.1 62.8 19 -6.3 20.7
16:05 1012 29.88 841 24.83 17.1 62.7 21 -5.6 21.9
16:10 1012 29.88 841 24.83 17.1 62.8 20 -5.8 21.5
16:15 1012 29.88 841 24.83 17.1 62.8 20 -6 21.3
16:20 1012 29.88 841 24.83 17.1 62.8 20 -5.9 21.5
16:25 1012 29.88 841 24.83 17.1 62.8 20 -6 21.1
16:30 1012 29.88 841 24.83 17 62.6 21 -5.3 22.4
16:35 1012 29.88 841 24.83 16.9 62.5 20 -6.2 20.8
16:40 1012 29.88 841 24.83 17 62.5 21 -5.5 22.1
16:45 1012 29.88 841 24.83 17 62.6 21 -5.5 22.1
16:50 1012 29.88 841 24.83 17 62.6 21 -5.4 22.3
16:55 1012 29.88 841 24.83 17 62.7 21 -5.5 22.1
17:00 1012 29.88 841 24.83 17 62.7 21 -5.5 22.2
17:05 1012 29.88 841 24.83 17 62.6 21 -5.7 21.8
17:10 1012 29.88 841 24.83 16.9 62.4 21 -5.6 21.9
17:15 1012 29.88 841 24.83 16.9 62.4 21 -5.6 22
17:20 1012 29.88 841 24.83 16.8 62.3 21 -5.4 22.3
17:25 1012 29.88 841 24.83 16.9 62.5 21 -5.5 22.1
17:30 1011 29.85 841 24.83 16.9 62.4 20 -6.1 21
17:35 1011 29.85 841 24.83 16.9 62.4 21 -5.7 21.7
17:40 1011 29.85 841 24.83 16.8 62.3 21 -5.5 22.2
17:45 1011 29.85 841 24.83 16.8 62.2 20 -6.3 20.7
17:50 1011 29.85 841 24.83 16.8 62.2 20 -6 21.2
17:55 1011 29.85 840 24.81 16.7 62 21 -5.8 21.5
18:00 1011 29.85 840 24.81 16.6 61.9 21 -5.8 21.5
18:05 1011 29.85 840 24.81 16.5 61.7 21 -5.7 21.7
18:10 1011 29.85 840 24.81 16.4 61.5 20 -6.3 20.7
18:15 1011 29.85 840 24.81 16.3 61.3 21 -6.1 21
18:20 1011 29.85 840 24.81 16.2 61.1 21 -6.3 20.7
18:25 1011 29.85 840 24.81 16.1 61 22 -5.7 21.7
18:30 1011 29.85 841 24.83 15.9 60.5 21 -6.1 21
18:35 1011 29.85 840 24.81 16 60.8 21 -6.4 20.5
18:40 1011 29.85 840 24.81 15.8 60.5 22 -5.8 21.5
18:45 1011 29.85 840 24.81 15.6 60.1 22 -6 21.2
18:50 1011 29.85 840 24.81 15.5 59.9 23 -5.6 21.8
18:55 1011 29.85 840 24.81 15.3 59.5 23 -5.6 21.8
19:00 1011 29.85 840 24.81 15.2 59.3 23 -5.9 21.3
19:05 1011 29.85 840 24.81 15.3 59.5 22 -6.3 20.7
19:10 1011 29.85 840 24.81 15.3 59.6 22 -6 21.2
19:15 1011 29.85 840 24.81 15.2 59.4 23 -5.8 21.6
19:20 1011 29.85 841 24.83 14.9 58.9 24 -5.5 22.1
19:25 1011 29.85 841 24.83 14.5 58.1 25 -5.2 22.6
19:30 1011 29.85 841 24.83 14.5 58.1 25 -5.3 22.4
19:35 1012 29.88 841 24.83 14.4 58 25 -5.3 22.5
19:40 1012 29.88 841 24.83 14.5 58.1 25 -5 23
19:45 1012 29.88 841 24.83 14.5 58.2 26 -4.5 23.9
19:50 1012 29.88 841 24.83 14.3 57.8 27 -4.2 24.5
19:55 1012 29.88 841 24.83 14.2 57.5 28 -4 24.8
20:00 1012 29.88 841 24.83 14.1 57.4 28 -4.1 24.6
20:05 1011 29.85 841 24.83 14.1 57.4 28 -4.1 24.6
20:10 1012 29.88 841 24.83 14 57.2 29 -3.7 25.4
20:15 1012 29.88 841 24.83 13.8 56.9 29 -3.9 24.9
20:20 1012 29.88 841 24.83 14 57.2 29 -3.7 25.4
20:25 1012 29.88 841 24.83 13.9 57.1 29 -4 24.9
20:30 1012 29.88 841 24.83 13.9 57 29 -3.7 25.3
20:35 1012 29.88 841 24.83 14 57.3 28 -4 24.8
20:40 1012 29.88 841 24.83 14 57.3 28 -3.9 25
20:45 1012 29.88 841 24.83 14.1 57.3 28 -4.2 24.5
20:50 1012 29.88 841 24.83 13.9 57 29 -3.8 25.2
20:55 1011 29.85 841 24.83 13.9 57.1 29 -4 24.8
21:00 1011 29.85 841 24.83 13.6 56.4 29 -3.9 24.9
21:05 1011 29.85 841 24.83 13.4 56.1 29 -4 24.8
21:10 1011 29.85 841 24.83 13.5 56.3 29 -4 24.7
21:15 1011 29.85 841 24.83 13.4 56.1 29 -4 24.8
21:20 1012 29.88 841 24.83 13.4 56.1 29 -4.2 24.4
21:25 1012 29.88 841 24.83 13.4 56.1 29 -4.1 24.5
21:30 1012 29.88 841 24.83 13.6 56.5 28 -4.3 24.3
21:35 1012 29.88 841 24.83 14 57.1 28 -4.2 24.4
21:40 1012 29.88 841 24.83 13.8 56.8 29 -3.8 25.1
21:45 1012 29.88 841 24.83 13.5 56.4 30 -3.8 25.1
21:50 1012 29.88 841 24.83 13.4 56.2 30 -3.9 25
21:55 1012 29.88 841 24.83 13.3 55.9 30 -3.8 25.1
22:00 1012 29.88 841 24.83 13.5 56.2 30 -3.6 25.4
22:05 1012 29.88 841 24.83 13.7 56.7 30 -3.4 25.8
22:10 1012 29.88 841 24.83 13.5 56.3 31 -3.4 25.8
22:15 1012 29.88 841 24.83 13.4 56 31 -3.3 26
22:20 1012 29.88 841 24.83 13.3 55.9 31 -3.3 26
22:25 1011 29.85 841 24.83 13.3 55.9 31 -3.2 26.2
22:30 1011 29.85 841 24.83 13.4 56.2 31 -3.5 25.7
22:35 1011 29.85 841 24.83 13.4 56.2 31 -3.3 26.1
22:40 1011 29.85 841 24.83 13.3 55.9 31 -3.5 25.7
22:45 1011 29.85 840 24.81 13.5 56.3 29 -4 24.7
22:50 1011 29.85 840 24.81 13.8 56.9 30 -3.2 26.2
22:55 1011 29.85 840 24.81 13.4 56.1 31 -3.4 25.8
23:00 1011 29.85 840 24.81 13.3 56 31 -3.4 25.9
23:05 1011 29.85 840 24.81 13.3 55.9 31 -3.4 25.8
23:10 1011 29.85 840 24.81 13.3 55.9 31 -3.4 25.9
23:15 1011 29.85 840 24.81 13.3 56 31 -3.3 26
23:20 1011 29.85 840 24.81 13.4 56.2 31 -3.4 25.9
23:25 1011 29.85 840 24.81 13.6 56.4 31 -3.4 25.9
23:30 1011 29.85 840 24.81 13.5 56.3 31 -3.2 26.2
23:35 1011 29.85 840 24.81 13.5 56.4 30 -3.6 25.6
23:40 1011 29.85 840 24.81 13.6 56.4 29 -3.9 25
23:45 1011 29.85 840 24.81 13.8 56.8 29 -3.8 25.1
23:50 1010 29.83 840 24.81 13.7 56.7 29 -3.9 24.9
23:55 1010 29.83 840 24.81 13.7 56.7 30 -3.6 25.5
24:00 1011 29.85 840 24.81 14 57.2 28 -4 24.8